Time;durP1;ratioP1;P1;durP2;ratioP2;P2;SDS_P1;SDS_P2;PMS_P1;PMS_P2;Temp;Humidity;BMP_temperature;BMP_pressure;BME280_temperature;BME280_humidity;BME280_pressure;Samples;Min_cycle;Max_cycle;Signal;HPM_P1;HPM_P2
2023/10/17 00:02:59;;;;;;;5.10;3.67;;;;;7.10;101527.00;;;;5012096;28;20229;-70
2023/10/17 00:05:46;;;;;;;7.77;4.37;;;;;7.10;101521.00;;;;5010577;28;20218;-70
2023/10/17 00:08:34;;;;;;;5.90;4.20;;;;;7.00;101530.00;;;;5016982;28;20241;-70
2023/10/17 00:11:25;;;;;;;6.00;4.20;;;;;7.10;101532.00;;;;5016960;28;20308;-70
2023/10/17 00:14:12;;;;;;;5.73;4.00;;;;;7.00;101537.00;;;;5015721;28;20233;-70
2023/10/17 00:16:58;;;;;;;8.00;4.30;;;;;7.00;101535.00;;;;5004937;28;20233;-69
2023/10/17 00:19:45;;;;;;;6.83;4.80;;;;;7.00;101529.00;;;;5007699;28;20217;-69
2023/10/17 00:22:35;;;;;;;7.63;4.50;;;;;7.00;101535.00;;;;5018786;28;20984;-71
2023/10/17 00:25:25;;;;;;;7.97;4.60;;;;;6.90;101540.00;;;;5019160;28;21064;-68
2023/10/17 00:28:13;;;;;;;8.73;4.87;;;;;6.90;101531.00;;;;5012986;28;20248;-71
2023/10/17 00:30:59;;;;;;;8.50;5.17;;;;;6.90;101529.00;;;;5016679;28;20295;-70
2023/10/17 00:33:49;;;;;;;7.63;4.90;;;;;6.90;101522.00;;;;5017652;28;20221;-70
2023/10/17 00:36:36;;;;;;;9.03;5.20;;;;;6.90;101524.00;;;;5019891;28;20229;-71
2023/10/17 00:39:29;;;;;;;7.00;5.53;;;;;7.00;101535.00;;;;5017165;28;20221;-68
2023/10/17 00:42:29;;;;;;;6.67;5.07;;;;;7.00;101536.00;;;;5013318;28;20234;-70
2023/10/17 00:45:17;;;;;;;13.30;5.13;;;;;7.00;101523.00;;;;5014541;28;20229;-69
2023/10/17 00:48:08;;;;;;;8.20;5.43;;;;;7.00;101512.00;;;;5009237;28;20246;-70
2023/10/17 00:51:07;;;;;;;7.27;4.93;;;;;7.00;101511.00;;;;5013307;28;20311;-72
2023/10/17 00:53:58;;;;;;;7.03;5.00;;;;;7.00;101513.00;;;;5025005;28;20232;-70
2023/10/17 00:56:45;;;;;;;7.70;5.13;;;;;7.10;101510.00;;;;5021986;28;20238;-70
2023/10/17 00:59:33;;;;;;;10.40;5.73;;;;;7.10;101519.00;;;;5015624;28;20233;-70
2023/10/17 01:02:22;;;;;;;7.63;5.40;;;;;7.10;101526.00;;;;5021750;28;20224;-70
2023/10/17 01:05:11;;;;;;;9.07;5.40;;;;;7.10;101532.00;;;;5006406;28;20327;-71
2023/10/17 01:07:57;;;;;;;8.57;4.67;;;;;7.10;101503.00;;;;5010883;28;20228;-70
2023/10/17 01:10:47;;;;;;;6.70;5.40;;;;;7.10;101516.00;;;;5022708;28;20891;-69
2023/10/17 01:13:37;;;;;;;8.17;5.10;;;;;7.00;101516.00;;;;5022385;28;20594;-69
2023/10/17 01:16:25;;;;;;;6.93;5.00;;;;;7.10;101516.00;;;;5025832;28;20360;-70
2023/10/17 01:19:14;;;;;;;6.63;4.93;;;;;7.10;101513.00;;;;5014666;28;20249;-69
2023/10/17 01:22:01;;;;;;;9.67;5.33;;;;;7.10;101510.00;;;;5001936;28;20225;-69
2023/10/17 01:24:48;;;;;;;7.03;5.07;;;;;7.10;101514.00;;;;5012182;28;20358;-70
2023/10/17 01:27:35;;;;;;;8.53;5.47;;;;;7.10;101504.00;;;;5018736;28;20232;-70
2023/10/17 01:30:22;;;;;;;7.30;5.43;;;;;7.20;101498.00;;;;5017445;28;20233;-67
2023/10/17 01:33:09;;;;;;;9.63;5.63;;;;;7.20;101504.00;;;;5021893;28;20758;-69
2023/10/17 01:35:57;;;;;;;10.90;6.00;;;;;7.20;101497.00;;;;5003851;28;20237;-70
2023/10/17 01:38:45;;;;;;;8.17;5.83;;;;;7.30;101492.00;;;;5024655;28;20607;-69
2023/10/17 01:41:33;;;;;;;8.23;5.87;;;;;7.30;101496.00;;;;5027044;28;20404;-70
2023/10/17 01:44:19;;;;;;;11.40;5.93;;;;;7.40;101494.00;;;;5017833;28;20240;-67
2023/10/17 01:47:07;;;;;;;8.97;5.77;;;;;7.40;101502.00;;;;5018156;28;20603;-70
2023/10/17 01:49:54;;;;;;;8.57;5.87;;;;;7.40;101500.00;;;;5027919;28;20229;-66
2023/10/17 01:52:42;;;;;;;9.40;5.63;;;;;7.40;101486.00;;;;5018289;28;20241;-69
2023/10/17 01:55:29;;;;;;;9.80;6.30;;;;;7.40;101498.00;;;;5011484;28;20253;-69
2023/10/17 01:58:18;;;;;;;11.83;6.30;;;;;7.40;101485.00;;;;5016847;28;20237;-68
2023/10/17 02:01:10;;;;;;;9.53;5.80;;;;;7.50;101485.00;;;;5015574;28;20262;-72
2023/10/17 02:04:02;;;;;;;10.63;6.10;;;;;7.50;101472.00;;;;5011509;28;20275;-70
2023/10/17 02:06:48;;;;;;;11.50;6.33;;;;;7.50;101473.00;;;;5021933;28;20264;-66
2023/10/17 02:09:48;;;;;;;9.20;6.30;;;;;7.50;101474.00;;;;5007272;28;20727;-70
2023/10/17 02:12:34;;;;;;;8.33;6.37;;;;;7.50;101472.00;;;;5019017;28;20242;-68
2023/10/17 02:15:23;;;;;;;10.83;6.60;;;;;7.60;101477.00;;;;5025212;28;20256;-66
2023/10/17 02:18:14;;;;;;;11.43;6.83;;;;;7.50;101474.00;;;;5003407;28;20233;-70
2023/10/17 02:21:04;;;;;;;9.13;6.60;;;;;7.60;101474.00;;;;5005580;28;20234;-70
2023/10/17 02:23:51;;;;;;;11.27;6.83;;;;;7.60;101473.00;;;;5011466;28;20222;-69
2023/10/17 02:26:49;;;;;;;10.00;6.80;;;;;7.60;101472.00;;;;5008764;28;20602;-71
2023/10/17 02:29:39;;;;;;;9.37;6.57;;;;;7.70;101486.00;;;;5014224;28;20261;-71
2023/10/17 02:32:26;;;;;;;9.93;7.00;;;;;7.70;101478.00;;;;5025848;28;20377;-69
2023/10/17 02:35:15;;;;;;;9.17;6.37;;;;;7.60;101476.00;;;;5027054;28;20722;-70
2023/10/17 02:38:04;;;;;;;9.70;6.57;;;;;7.60;101487.00;;;;5006442;28;20229;-70
2023/10/17 02:40:53;;;;;;;11.13;7.30;;;;;7.60;101480.00;;;;5008951;28;20690;-71
2023/10/17 02:43:41;;;;;;;11.37;6.83;;;;;7.60;101490.00;;;;5026410;28;20237;-70
2023/10/17 02:46:28;;;;;;;10.17;7.00;;;;;7.60;101483.00;;;;5019112;28;20287;-70
2023/10/17 02:49:16;;;;;;;12.37;7.00;;;;;7.60;101476.00;;;;5014155;28;20221;-69
2023/10/17 02:52:02;;;;;;;9.83;6.93;;;;;7.60;101484.00;;;;5027242;28;20242;-71
2023/10/17 02:54:59;;;;;;;12.00;6.53;;;;;7.60;101484.00;;;;5019633;28;20359;-69
2023/10/17 02:57:46;;;;;;;8.87;6.43;;;;;7.60;101476.00;;;;5019644;28;20850;-70
2023/10/17 03:00:35;;;;;;;11.40;6.87;;;;;7.60;101481.00;;;;5007213;28;20237;-69
2023/10/17 03:03:22;;;;;;;12.87;7.70;;;;;7.60;101484.00;;;;5002635;28;20254;-69
2023/10/17 03:06:15;;;;;;;10.93;7.60;;;;;7.50;101484.00;;;;5009292;28;20472;-71
2023/10/17 03:09:15;;;;;;;13.23;7.33;;;;;7.50;101473.00;;;;5021217;28;20307;-72
2023/10/17 03:12:19;;;;;;;12.93;7.37;;;;;7.40;101484.00;;;;5015887;28;20622;-72
2023/10/17 03:15:18;;;;;;;12.70;7.47;;;;;7.40;101469.00;;;;5015979;28;20746;-68
2023/10/17 03:18:14;;;;;;;12.23;7.67;;;;;7.40;101462.00;;;;5017190;28;20228;-69
2023/10/17 03:21:03;;;;;;;11.07;7.47;;;;;7.40;101466.00;;;;5022263;28;20233;-69
2023/10/17 03:24:00;;;;;;;12.37;8.30;;;;;7.50;101462.00;;;;5013194;28;20662;-69
2023/10/17 03:26:54;;;;;;;10.63;7.47;;;;;7.50;101468.00;;;;5014365;28;20931;-70
2023/10/17 03:29:42;;;;;;;12.57;8.03;;;;;7.50;101467.00;;;;5025136;28;20221;-69
2023/10/17 03:32:28;;;;;;;12.80;8.07;;;;;7.50;101462.00;;;;5025186;28;20266;-70
2023/10/17 03:35:21;;;;;;;11.50;7.47;;;;;7.40;101470.00;;;;5004952;28;20755;-70
2023/10/17 03:38:08;;;;;;;12.67;7.73;;;;;7.50;101466.00;;;;5004163;28;20229;-71
2023/10/17 03:41:02;;;;;;;11.83;7.80;;;;;7.50;101468.00;;;;5008170;28;20296;-68
2023/10/17 03:43:52;;;;;;;12.70;8.43;;;;;7.50;101475.00;;;;5018776;28;20234;-69
2023/10/17 03:46:38;;;;;;;10.97;7.87;;;;;7.50;101475.00;;;;5008239;28;20236;-69
2023/10/17 03:49:24;;;;;;;10.10;7.37;;;;;7.40;101473.00;;;;5008211;28;20268;-69
2023/10/17 03:52:16;;;;;;;12.60;7.87;;;;;7.40;101473.00;;;;5007560;28;20727;-69
2023/10/17 03:55:09;;;;;;;17.13;8.00;;;;;7.40;101469.00;;;;5022666;28;20245;-70
2023/10/17 03:57:59;;;;;;;12.07;8.33;;;;;7.50;101463.00;;;;5016269;28;20738;-71
2023/10/17 04:00:46;;;;;;;12.43;8.20;;;;;7.50;101457.00;;;;5020172;28;20360;-70
2023/10/17 04:03:34;;;;;;;11.13;8.00;;;;;7.50;101461.00;;;;5017561;28;20238;-70
2023/10/17 04:06:24;;;;;;;14.70;8.70;;;;;7.50;101452.00;;;;5001589;28;20226;-69
2023/10/17 04:09:20;;;;;;;13.57;8.87;;;;;7.40;101470.00;;;;5007505;28;20222;-69
2023/10/17 04:12:08;;;;;;;12.63;8.23;;;;;7.50;101471.00;;;;5017447;28;20226;-70
2023/10/17 04:14:59;;;;;;;13.53;8.77;;;;;7.40;101476.00;;;;5032414;28;20240;-71
2023/10/17 04:17:47;;;;;;;15.77;8.77;;;;;7.40;101475.00;;;;5019462;28;20233;-69
2023/10/17 04:20:36;;;;;;;14.50;8.60;;;;;7.40;101479.00;;;;5015731;28;20388;-69
2023/10/17 04:23:26;;;;;;;12.37;8.97;;;;;7.40;101487.00;;;;5015852;28;20241;-67
2023/10/17 04:26:17;;;;;;;16.63;9.63;;;;;7.40;101480.00;;;;5010040;28;20751;-70
2023/10/17 04:29:12;;;;;;;16.40;9.93;;;;;7.40;101474.00;;;;5020935;28;20233;-69
2023/10/17 04:32:01;;;;;;;14.50;8.87;;;;;7.40;101486.00;;;;5016876;28;20232;-70
2023/10/17 04:34:48;;;;;;;14.50;9.70;;;;;7.40;101486.00;;;;5014581;28;20887;-69
2023/10/17 04:37:37;;;;;;;17.40;10.13;;;;;7.40;101468.00;;;;5017955;28;20254;-70
2023/10/17 04:40:37;;;;;;;16.87;10.23;;;;;7.40;101468.00;;;;5004795;28;20973;-70
2023/10/17 04:46:29;;;;;;;14.87;9.70;;;;;7.40;101488.00;;;;4998948;28;20270;-71
2023/10/17 04:49:19;;;;;;;18.50;10.97;;;;;7.40;101480.00;;;;5012632;28;20272;-68
2023/10/17 04:52:06;;;;;;;16.30;10.43;;;;;7.40;101486.00;;;;5024217;28;20311;-69
2023/10/17 04:54:53;;;;;;;19.73;10.50;;;;;7.50;101472.00;;;;5018051;28;23030;-70
2023/10/17 04:57:58;;;;;;;19.73;10.67;;;;;7.40;101478.00;;;;5013619;28;20237;-70
2023/10/17 05:01:01;;;;;;;21.53;10.43;;;;;7.40;101474.00;;;;5024930;28;20233;-71
2023/10/17 05:03:50;;;;;;;17.47;10.30;;;;;7.40;101481.00;;;;5014743;28;20326;-69
2023/10/17 06:17:53;;;;;;;20.07;11.90;;;;;7.40;101502.00;;;;5018478;28;20249;-68
2023/10/17 06:26:47;;;;;;;22.33;11.27;;;;;7.40;101497.00;;;;5018688;28;20300;-69
2023/10/17 06:33:05;;;;;;;20.00;11.03;;;;;7.40;101498.00;;;;5009776;28;20256;-70
2023/10/17 06:35:54;;;;;;;21.03;10.73;;;;;7.40;101502.00;;;;5023867;28;20232;-71
2023/10/17 06:38:46;;;;;;;22.73;11.20;;;;;7.40;101503.00;;;;5020262;28;20237;-69
2023/10/17 06:41:39;;;;;;;19.07;11.17;;;;;7.40;101500.00;;;;5019774;28;20237;-71
2023/10/17 06:44:26;;;;;;;19.57;11.33;;;;;7.40;101494.00;;;;5016349;28;20230;-71
2023/10/17 06:47:17;;;;;;;22.13;10.83;;;;;7.40;101494.00;;;;5024992;28;20232;-71
2023/10/17 06:50:34;;;;;;;21.37;11.80;;;;;7.40;101495.00;;;;5020937;28;20279;-71
2023/10/17 06:53:27;;;;;;;20.17;12.33;;;;;7.50;101488.00;;;;5020188;28;20280;-72
2023/10/17 06:56:16;;;;;;;23.33;11.30;;;;;7.50;101489.00;;;;5025740;28;20364;-70
2023/10/17 06:59:04;;;;;;;19.53;11.10;;;;;7.50;101497.00;;;;5023497;28;20249;-71
2023/10/17 07:05:07;;;;;;;23.07;11.47;;;;;7.60;101503.00;;;;4997925;28;20248;-71
2023/10/17 07:07:54;;;;;;;23.73;11.67;;;;;7.60;101505.00;;;;5022876;28;20241;-71
2023/10/17 07:10:53;;;;;;;21.73;12.07;;;;;7.60;101499.00;;;;5020300;28;20245;-70
2023/10/17 07:13:59;;;;;;;23.37;11.93;;;;;7.50;101503.00;;;;5018739;28;20243;-71
2023/10/17 07:16:48;;;;;;;22.00;12.30;;;;;7.60;101495.00;;;;5020048;28;20337;-70
2023/10/17 07:19:58;;;;;;;20.83;11.63;;;;;7.70;101501.00;;;;5014531;28;20225;-71
2023/10/17 07:22:53;;;;;;;20.20;11.67;;;;;7.70;101497.00;;;;5021217;28;20266;-71
2023/10/17 07:25:39;;;;;;;24.90;12.47;;;;;7.80;101508.00;;;;5013932;28;20627;-69
2023/10/17 07:28:28;;;;;;;23.13;12.30;;;;;7.80;101501.00;;;;5019779;28;20764;-70
2023/10/17 07:31:16;;;;;;;25.63;12.23;;;;;7.90;101494.00;;;;5022947;28;20361;-71
2023/10/17 07:34:18;;;;;;;26.57;13.60;;;;;7.90;101496.00;;;;5016435;28;20238;-71
2023/10/17 07:37:14;;;;;;;26.90;13.13;;;;;8.00;101499.00;;;;5004126;28;20280;-71
2023/10/17 07:40:16;;;;;;;29.97;15.17;;;;;8.10;101511.00;;;;5007562;28;20226;-72
2023/10/17 07:43:03;;;;;;;24.93;12.83;;;;;8.10;101502.00;;;;5004650;28;20965;-70
2023/10/17 07:45:55;;;;;;;24.23;13.30;;;;;8.10;101510.00;;;;5004574;28;20229;-71
2023/10/17 07:48:48;;;;;;;33.77;13.90;;;;;8.10;101516.00;;;;5008423;28;20282;-70
2023/10/17 07:51:35;;;;;;;27.60;13.60;;;;;8.10;101500.00;;;;5001029;28;20224;-70
2023/10/17 07:54:28;;;;;;;24.73;12.93;;;;;8.20;101511.00;;;;5006569;28;20740;-71
2023/10/17 07:57:22;;;;;;;25.47;13.23;;;;;8.30;101509.00;;;;5010239;28;20224;-69
2023/10/17 08:00:24;;;;;;;23.27;12.57;;;;;8.30;101507.00;;;;5006071;28;20231;-70
2023/10/17 08:03:15;;;;;;;33.17;15.10;;;;;8.30;101499.00;;;;5012289;28;20724;-70
2023/10/17 08:06:05;;;;;;;27.43;15.23;;;;;8.20;101501.00;;;;5008504;28;20724;-71
2023/10/17 08:08:52;;;;;;;26.70;14.50;;;;;8.20;101497.00;;;;5002653;28;20236;-71
2023/10/17 08:11:41;;;;;;;23.80;13.37;;;;;8.30;101497.00;;;;5004209;28;20234;-70
2023/10/17 08:14:34;;;;;;;29.73;14.20;;;;;8.30;101504.00;;;;5006318;28;20882;-70
2023/10/17 08:17:20;;;;;;;28.37;13.83;;;;;8.40;101499.00;;;;5006542;28;20231;-70
2023/10/17 08:23:13;;;;;;;26.57;14.40;;;;;8.60;101496.00;;;;5014545;28;20282;-69
2023/10/17 08:26:00;;;;;;;27.43;13.83;;;;;8.80;101494.00;;;;5006217;28;20318;-71
2023/10/17 08:28:51;;;;;;;27.20;15.13;;;;;8.90;101495.00;;;;5000485;28;20228;-71
2023/10/17 08:31:44;;;;;;;23.43;13.87;;;;;8.90;101500.00;;;;4995309;28;20236;-70
2023/10/17 08:34:41;;;;;;;25.77;13.73;;;;;9.00;101489.00;;;;5005821;28;20367;-71
2023/10/17 08:37:30;;;;;;;26.37;14.30;;;;;9.20;101489.00;;;;5004911;28;20242;-69
2023/10/17 08:43:19;;;;;;;25.53;13.90;;;;;9.50;101490.00;;;;5009405;28;20377;-70
2023/10/17 08:46:10;;;;;;;27.87;13.87;;;;;9.60;101486.00;;;;5005029;28;20238;-71
2023/10/17 08:48:58;;;;;;;24.13;13.77;;;;;9.70;101487.00;;;;5009564;28;20805;-70
2023/10/17 08:51:44;;;;;;;25.27;14.17;;;;;9.80;101495.00;;;;5003289;28;20880;-71
2023/10/17 08:54:32;;;;;;;23.77;13.37;;;;;9.80;101493.00;;;;5009964;28;20234;-70
2023/10/17 08:57:20;;;;;;;22.53;13.27;;;;;9.90;101487.00;;;;5013888;28;20274;-71
2023/10/17 09:03:10;;;;;;;21.93;12.37;;;;;10.00;101488.00;;;;4988549;28;20779;-71
2023/10/17 09:06:28;;;;;;;19.47;11.63;;;;;10.10;101484.00;;;;5003877;28;20300;-72
2023/10/17 09:09:21;;;;;;;17.43;10.70;;;;;10.30;101486.00;;;;5005487;28;20249;-73
2023/10/17 09:12:23;;;;;;;16.77;9.87;;;;;10.40;101468.00;;;;5009232;28;20320;-71
2023/10/17 09:15:27;;;;;;;16.27;9.20;;;;;10.40;101469.00;;;;5003382;28;20232;-69
2023/10/17 09:18:13;;;;;;;20.63;10.37;;;;;10.50;101468.00;;;;5007423;28;20233;-70
2023/10/17 09:21:05;;;;;;;18.90;10.10;;;;;10.60;101472.00;;;;5005644;28;20234;-72
2023/10/17 09:23:51;;;;;;;16.50;10.00;;;;;10.80;101478.00;;;;4999512;28;20230;-72
2023/10/17 09:26:44;;;;;;;12.70;8.57;;;;;10.90;101471.00;;;;5004531;28;20236;-70
2023/10/17 09:29:30;;;;;;;15.10;8.70;;;;;11.00;101471.00;;;;5003611;28;20226;-71
2023/10/17 09:32:38;;;;;;;14.73;9.33;;;;;11.10;101471.00;;;;5003535;28;20226;-72
2023/10/17 09:35:24;;;;;;;16.43;9.27;;;;;11.20;101480.00;;;;5002798;28;20230;-70
2023/10/17 09:38:11;;;;;;;16.00;8.50;;;;;11.30;101467.00;;;;5024513;28;20372;-71
2023/10/17 09:40:59;;;;;;;15.23;8.07;;;;;11.40;101468.00;;;;5018418;28;20604;-70
2023/10/17 09:44:01;;;;;;;11.13;7.53;;;;;11.50;101472.00;;;;5020714;28;20294;-72
2023/10/17 09:46:50;;;;;;;15.47;8.13;;;;;11.60;101466.00;;;;5024882;28;20299;-72
2023/10/17 09:49:45;;;;;;;15.23;8.17;;;;;11.80;101459.00;;;;5019572;28;20734;-70
2023/10/17 09:52:31;;;;;;;13.43;7.90;;;;;11.90;101465.00;;;;5019166;28;20258;-72
2023/10/17 09:55:19;;;;;;;11.50;7.83;;;;;12.10;101464.00;;;;5024120;28;20247;-71
2023/10/17 09:58:08;;;;;;;17.47;7.77;;;;;12.00;101463.00;;;;5024860;28;20595;-72
2023/10/17 10:01:00;;;;;;;10.33;6.30;;;;;12.10;101468.00;;;;5017625;28;20733;-71
2023/10/17 10:03:48;;;;;;;15.10;7.67;;;;;12.00;101454.00;;;;5023425;28;20385;-72
2023/10/17 10:06:36;;;;;;;12.00;7.67;;;;;12.00;101457.00;;;;5024006;28;20233;-71
2023/10/17 10:09:30;;;;;;;10.57;6.77;;;;;12.00;101451.00;;;;5024162;28;20233;-71
2023/10/17 10:12:17;;;;;;;15.03;6.70;;;;;11.70;101461.00;;;;5020855;28;20236;-71
2023/10/17 10:15:06;;;;;;;9.23;6.63;;;;;11.60;101461.00;;;;5021522;28;20356;-72
2023/10/17 10:17:53;;;;;;;10.33;6.90;;;;;11.80;101449.00;;;;5024391;28;20233;-72
2023/10/17 10:20:55;;;;;;;12.30;6.93;;;;;11.90;101458.00;;;;5024263;28;20701;-70
2023/10/17 10:23:45;;;;;;;10.93;6.60;;;;;11.90;101465.00;;;;5023652;28;22452;-73
2023/10/17 10:26:34;;;;;;;10.57;6.40;;;;;12.00;101464.00;;;;5023800;28;20248;-71
2023/10/17 10:29:25;;;;;;;10.70;6.20;;;;;12.20;101463.00;;;;5015695;28;20610;-70
2023/10/17 10:32:33;;;;;;;10.37;6.00;;;;;12.20;101450.00;;;;5023722;28;20229;-72
2023/10/17 10:35:19;;;;;;;10.90;6.50;;;;;12.50;101451.00;;;;5023543;28;20228;-67
2023/10/17 10:38:07;;;;;;;9.07;6.40;;;;;12.60;101465.00;;;;5020326;28;20225;-71
2023/10/17 10:40:55;;;;;;;11.20;6.80;;;;;12.80;101463.00;;;;5015467;28;20574;-71
2023/10/17 10:43:44;;;;;;;12.03;6.67;;;;;13.00;101464.00;;;;5015576;28;20281;-69
2023/10/17 10:46:31;;;;;;;10.00;6.20;;;;;13.00;101458.00;;;;5022955;28;20240;-70
2023/10/17 10:49:26;;;;;;;7.63;5.60;;;;;12.90;101462.00;;;;5019654;28;20291;-71
2023/10/17 10:52:12;;;;;;;9.40;6.23;;;;;12.70;101451.00;;;;5019537;28;20245;-73
2023/10/17 10:55:00;;;;;;;9.90;6.27;;;;;12.80;101457.00;;;;5021003;28;20284;-71
2023/10/17 10:57:48;;;;;;;10.37;6.97;;;;;12.90;101463.00;;;;5017818;28;20917;-72
2023/10/17 11:00:35;;;;;;;11.10;5.93;;;;;13.00;101451.00;;;;5015368;28;20245;-70
2023/10/17 11:03:23;;;;;;;8.70;5.93;;;;;12.90;101451.00;;;;5023261;28;20268;-71
2023/10/17 11:06:11;;;;;;;9.50;5.70;;;;;13.00;101443.00;;;;5018817;28;20226;-73
2023/10/17 11:08:57;;;;;;;8.93;5.53;;;;;13.30;101442.00;;;;5018222;28;20230;-73
2023/10/17 11:11:44;;;;;;;7.83;4.60;;;;;13.30;101426.00;;;;5020234;28;20237;-73
2023/10/17 11:14:32;;;;;;;6.87;5.00;;;;;13.30;101429.00;;;;5027542;28;20652;-72
2023/10/17 11:17:18;;;;;;;7.50;4.67;;;;;13.50;101422.00;;;;5020714;28;20357;-73
2023/10/17 11:20:14;;;;;;;7.03;4.33;;;;;13.40;101421.00;;;;5021448;28;20229;-72
2023/10/17 11:23:03;;;;;;;6.47;4.70;;;;;13.30;101428.00;;;;5022442;28;20231;-72
2023/10/17 11:25:51;;;;;;;7.70;5.07;;;;;13.50;101417.00;;;;5026629;28;20235;-73
2023/10/17 11:28:41;;;;;;;7.90;5.03;;;;;13.60;101420.00;;;;5025334;28;20301;-75
2023/10/17 11:31:31;;;;;;;6.93;5.23;;;;;13.60;101417.00;;;;5025560;28;20255;-73
2023/10/17 11:34:19;;;;;;;10.10;5.73;;;;;13.60;101395.00;;;;5021108;28;20232;-72
2023/10/17 11:37:11;;;;;;;9.00;6.03;;;;;13.60;101397.00;;;;5020729;28;20372;-75
2023/10/17 11:40:16;;;;;;;8.47;5.27;;;;;13.60;101392.00;;;;5024126;28;20693;-71
2023/10/17 11:43:14;;;;;;;10.13;5.20;;;;;13.70;101402.00;;;;5014940;28;20366;-72
2023/10/17 11:46:00;;;;;;;8.87;6.10;;;;;13.80;101394.00;;;;5015533;28;20825;-70
2023/10/17 11:48:48;;;;;;;8.77;5.70;;;;;13.60;101391.00;;;;5011729;28;20685;-72
2023/10/17 11:51:35;;;;;;;10.57;5.77;;;;;13.60;101392.00;;;;5012494;28;20349;-71
2023/10/17 11:54:22;;;;;;;8.13;5.20;;;;;13.50;101392.00;;;;5010339;28;20725;-71
2023/10/17 11:57:23;;;;;;;7.23;5.27;;;;;13.50;101387.00;;;;5011187;28;20221;-75
2023/10/17 12:00:19;;;;;;;7.27;4.77;;;;;13.50;101390.00;;;;5006780;28;20649;-73
2023/10/17 12:03:06;;;;;;;12.23;4.70;;;;;13.40;101402.00;;;;4997489;28;20790;-72
2023/10/17 12:05:57;;;;;;;8.63;5.13;;;;;13.30;101395.00;;;;5006060;28;20631;-73
2023/10/17 12:08:44;;;;;;;6.50;4.90;;;;;13.50;101389.00;;;;5026254;28;20245;-71
2023/10/17 12:11:31;;;;;;;7.93;4.83;;;;;13.40;101377.00;;;;5026552;28;20229;-71
2023/10/17 12:14:22;;;;;;;6.67;4.67;;;;;13.70;101383.00;;;;5026605;28;20240;-71
2023/10/17 12:17:10;;;;;;;9.13;5.33;;;;;13.70;101383.00;;;;5017594;28;20223;-71
2023/10/17 12:19:57;;;;;;;7.90;4.83;;;;;13.90;101372.00;;;;5022250;28;20251;-73
2023/10/17 12:22:44;;;;;;;8.97;5.70;;;;;13.90;101359.00;;;;5022378;28;20232;-72
2023/10/17 12:25:32;;;;;;;8.33;5.47;;;;;13.90;101355.00;;;;5020226;28;20258;-72
2023/10/17 12:28:19;;;;;;;8.37;5.20;;;;;14.00;101361.00;;;;5025055;28;20869;-71
2023/10/17 12:31:06;;;;;;;8.73;5.80;;;;;13.90;101357.00;;;;5016031;28;20233;-72
2023/10/17 12:33:52;;;;;;;9.17;5.10;;;;;14.00;101347.00;;;;5021764;28;20237;-71
2023/10/17 12:36:39;;;;;;;9.80;5.80;;;;;14.00;101339.00;;;;5025470;28;20295;-70
2023/10/17 12:39:31;;;;;;;10.17;6.10;;;;;14.30;101333.00;;;;5021042;28;20301;-71
2023/10/17 12:42:17;;;;;;;7.93;5.10;;;;;14.40;101324.00;;;;5021520;28;20753;-70
2023/10/17 12:45:05;;;;;;;9.17;4.97;;;;;14.30;101338.00;;;;5017956;28;20238;-70
2023/10/17 12:47:51;;;;;;;7.63;5.20;;;;;14.40;101321.00;;;;5023693;28;20628;-72
2023/10/17 12:50:43;;;;;;;8.40;4.60;;;;;14.20;101316.00;;;;5023504;28;22118;-71
2023/10/17 12:53:29;;;;;;;7.37;4.57;;;;;14.30;101312.00;;;;5017150;28;20260;-70
2023/10/17 12:56:18;;;;;;;6.07;4.40;;;;;14.20;101308.00;;;;5018615;28;20241;-69
2023/10/17 12:59:05;;;;;;;8.17;4.70;;;;;14.10;101312.00;;;;5025646;28;20233;-72
2023/10/17 13:01:52;;;;;;;7.53;4.67;;;;;14.00;101306.00;;;;5021604;28;20246;-71
2023/10/17 13:04:39;;;;;;;8.20;4.90;;;;;14.00;101305.00;;;;5022160;28;20248;-68
2023/10/17 13:07:26;;;;;;;8.20;4.83;;;;;14.20;101303.00;;;;5023717;28;20243;-72
2023/10/17 13:10:12;;;;;;;8.17;5.27;;;;;14.10;101306.00;;;;5022802;28;20713;-71
2023/10/17 13:13:00;;;;;;;8.13;5.10;;;;;14.20;101302.00;;;;5020325;28;20226;-73
2023/10/17 13:15:47;;;;;;;7.43;4.50;;;;;14.00;101303.00;;;;5025035;28;20249;-71
2023/10/17 13:18:36;;;;;;;14.23;4.77;;;;;13.90;101308.00;;;;5024619;28;20242;-72
2023/10/17 13:21:23;;;;;;;8.40;5.10;;;;;13.70;101290.00;;;;5022711;28;20231;-70
2023/10/17 13:24:09;;;;;;;6.43;4.80;;;;;13.50;101290.00;;;;5011614;28;20227;-73
2023/10/17 13:26:55;;;;;;;7.87;4.97;;;;;13.50;101291.00;;;;5023903;28;20237;-72
2023/10/17 13:29:56;;;;;;;6.10;4.37;;;;;13.50;101299.00;;;;5023484;28;20228;-72
2023/10/17 13:32:44;;;;;;;6.63;4.50;;;;;13.60;101304.00;;;;5023383;28;20930;-72
2023/10/17 13:35:31;;;;;;;5.80;4.50;;;;;13.40;101292.00;;;;5022075;28;20311;-69
2023/10/17 13:38:17;;;;;;;7.80;5.13;;;;;13.50;101294.00;;;;5022379;28;20241;-72
2023/10/17 13:41:06;;;;;;;6.73;4.80;;;;;13.50;101285.00;;;;5020383;28;20239;-71
2023/10/17 13:43:52;;;;;;;6.93;4.63;;;;;13.50;101276.00;;;;5025238;28;20669;-71
2023/10/17 13:46:40;;;;;;;9.67;4.90;;;;;13.50;101270.00;;;;5024144;28;20718;-72
2023/10/17 13:49:27;;;;;;;6.50;4.50;;;;;13.40;101267.00;;;;5025166;28;20593;-72
2023/10/17 13:52:17;;;;;;;9.83;4.80;;;;;13.40;101276.00;;;;5018755;28;20293;-69
2023/10/17 13:55:09;;;;;;;5.90;4.47;;;;;13.50;101255.00;;;;5021810;28;20234;-71
2023/10/17 13:58:00;;;;;;;5.90;4.00;;;;;13.30;101259.00;;;;5023858;28;20366;-70
2023/10/17 14:00:51;;;;;;;5.50;4.10;;;;;13.30;101248.00;;;;5021482;28;20223;-71
2023/10/17 14:03:39;;;;;;;11.37;4.53;;;;;13.40;101246.00;;;;5021354;28;20238;-71
2023/10/17 14:06:27;;;;;;;5.33;3.80;;;;;13.30;101247.00;;;;5017988;28;20238;-68
2023/10/17 14:09:17;;;;;;;5.03;3.40;;;;;13.10;101244.00;;;;5015009;28;20229;-71
2023/10/17 14:12:04;;;;;;;4.90;3.43;;;;;13.20;101236.00;;;;5020447;28;20895;-71
2023/10/17 14:14:50;;;;;;;4.20;3.27;;;;;13.30;101237.00;;;;5020996;28;20601;-70
2023/10/17 14:17:37;;;;;;;3.87;2.70;;;;;13.30;101234.00;;;;5024417;28;20226;-71
2023/10/17 14:20:38;;;;;;;4.67;3.57;;;;;13.40;101237.00;;;;5024577;28;20725;-72
2023/10/17 14:23:29;;;;;;;5.40;3.20;;;;;13.40;101233.00;;;;5024230;28;20284;-72
2023/10/17 14:26:16;;;;;;;4.30;3.00;;;;;13.40;101224.00;;;;5020973;28;20240;-71
2023/10/17 14:29:01;;;;;;;4.53;2.80;;;;;13.30;101224.00;;;;5024463;28;20463;-70
2023/10/17 14:31:48;;;;;;;3.93;2.80;;;;;13.40;101221.00;;;;5021278;28;20815;-72
2023/10/17 14:34:34;;;;;;;3.67;2.47;;;;;13.30;101229.00;;;;5007790;28;20607;-73
2023/10/17 14:37:23;;;;;;;3.43;2.50;;;;;13.40;101220.00;;;;5015648;28;20810;-72
2023/10/17 14:40:12;;;;;;;2.63;2.27;;;;;13.20;101220.00;;;;5019679;28;20268;-72
2023/10/17 14:42:59;;;;;;;3.03;2.10;;;;;13.10;101222.00;;;;5021694;28;20353;-70
2023/10/17 14:45:45;;;;;;;5.23;2.80;;;;;13.00;101222.00;;;;5028385;28;20611;-72
2023/10/17 14:48:32;;;;;;;6.43;2.70;;;;;13.00;101220.00;;;;5024937;28;20241;-70
2023/10/17 14:51:19;;;;;;;4.37;3.17;;;;;13.10;101213.00;;;;5026879;28;20427;-71
2023/10/17 14:54:08;;;;;;;5.83;3.10;;;;;13.00;101211.00;;;;5018512;28;20233;-72
2023/10/17 14:56:55;;;;;;;2.53;2.00;;;;;13.00;101205.00;;;;5018001;28;20282;-72
2023/10/17 14:59:42;;;;;;;2.83;2.20;;;;;13.00;101206.00;;;;5027352;28;20932;-73
2023/10/17 15:02:29;;;;;;;2.73;2.10;;;;;12.80;101205.00;;;;5023859;28;20309;-74
2023/10/17 15:05:16;;;;;;;2.43;2.10;;;;;12.90;101205.00;;;;5023584;28;20698;-71
2023/10/17 15:08:03;;;;;;;2.10;1.90;;;;;12.80;101212.00;;;;5021566;28;20233;-71
2023/10/17 15:10:54;;;;;;;2.40;2.20;;;;;12.80;101206.00;;;;5021629;28;20229;-73
2023/10/17 15:13:40;;;;;;;3.23;2.10;;;;;12.90;101208.00;;;;5027176;28;20233;-74
2023/10/17 15:16:27;;;;;;;2.53;1.90;;;;;12.80;101201.00;;;;5017995;28;20762;-72
2023/10/17 15:19:14;;;;;;;2.50;2.30;;;;;12.90;101203.00;;;;5026560;28;20253;-72
2023/10/17 15:22:00;;;;;;;5.70;3.40;;;;;12.80;101205.00;;;;5025123;28;20244;-74
2023/10/17 15:24:50;;;;;;;2.57;2.37;;;;;12.80;101199.00;;;;5022049;28;20230;-71
2023/10/17 15:27:39;;;;;;;4.60;2.40;;;;;12.70;101194.00;;;;5018827;28;20327;-72
2023/10/17 15:30:29;;;;;;;4.40;2.97;;;;;12.70;101194.00;;;;5023581;28;20348;-71
2023/10/17 15:33:23;;;;;;;4.30;2.80;;;;;12.70;101197.00;;;;5022989;28;20311;-72
2023/10/17 15:36:11;;;;;;;7.73;3.40;;;;;12.60;101208.00;;;;5027754;28;20300;-74